sensor_id;sensor_type;location;lat;lon;timestamp;temperature;humidity
7958;DHT22;4024;52.172;5.378;2023-02-28T00:00:20;5.40;99.90
7958;DHT22;4024;52.172;5.378;2023-02-28T00:02:46;5.40;99.90
7958;DHT22;4024;52.172;5.378;2023-02-28T00:05:16;5.40;99.90
7958;DHT22;4024;52.172;5.378;2023-02-28T00:07:42;5.40;99.90
7958;DHT22;4024;52.172;5.378;2023-02-28T00:10:10;5.40;99.90
7958;DHT22;4024;52.172;5.378;2023-02-28T00:12:36;5.40;99.90
7958;DHT22;4024;52.172;5.378;2023-02-28T00:15:06;5.40;99.90
7958;DHT22;4024;52.172;5.378;2023-02-28T00:17:32;5.50;99.90
7958;DHT22;4024;52.172;5.378;2023-02-28T00:19:58;5.50;99.90
7958;DHT22;4024;52.172;5.378;2023-02-28T00:22:38;5.50;99.90
7958;DHT22;4024;52.172;5.378;2023-02-28T00:25:04;5.50;99.90
7958;DHT22;4024;52.172;5.378;2023-02-28T00:27:32;5.50;99.90
7958;DHT22;4024;52.172;5.378;2023-02-28T00:29:58;5.50;99.90
7958;DHT22;4024;52.172;5.378;2023-02-28T00:32:23;5.60;99.90
7958;DHT22;4024;52.172;5.378;2023-02-28T00:34:49;5.60;99.90
7958;DHT22;4024;52.172;5.378;2023-02-28T00:37:15;5.60;99.90
7958;DHT22;4024;52.172;5.378;2023-02-28T00:39:40;5.60;99.90
7958;DHT22;4024;52.172;5.378;2023-02-28T00:42:07;5.60;99.90
7958;DHT22;4024;52.172;5.378;2023-02-28T00:44:32;5.60;99.90
7958;DHT22;4024;52.172;5.378;2023-02-28T00:46:59;5.60;99.90
7958;DHT22;4024;52.172;5.378;2023-02-28T00:49:26;5.60;99.90
7958;DHT22;4024;52.172;5.378;2023-02-28T00:51:53;5.60;99.90
7958;DHT22;4024;52.172;5.378;2023-02-28T00:54:19;5.70;99.90
7958;DHT22;4024;52.172;5.378;2023-02-28T00:56:44;5.70;99.90
7958;DHT22;4024;52.172;5.378;2023-02-28T00:59:15;5.70;99.90
7958;DHT22;4024;52.172;5.378;2023-02-28T01:01:41;5.70;99.90
7958;DHT22;4024;52.172;5.378;2023-02-28T01:04:07;5.70;99.90
7958;DHT22;4024;52.172;5.378;2023-02-28T01:06:32;5.70;99.90
7958;DHT22;4024;52.172;5.378;2023-02-28T01:08:59;5.70;99.90
7958;DHT22;4024;52.172;5.378;2023-02-28T01:11:24;5.70;99.90
7958;DHT22;4024;52.172;5.378;2023-02-28T01:13:51;5.70;99.90
7958;DHT22;4024;52.172;5.378;2023-02-28T01:16:17;5.70;99.90
7958;DHT22;4024;52.172;5.378;2023-02-28T01:18:42;5.70;99.90
7958;DHT22;4024;52.172;5.378;2023-02-28T01:21:11;5.70;99.90
7958;DHT22;4024;52.172;5.378;2023-02-28T01:23:38;5.80;99.90
7958;DHT22;4024;52.172;5.378;2023-02-28T01:26:23;5.80;99.90
7958;DHT22;4024;52.172;5.378;2023-02-28T01:28:51;5.80;99.90
7958;DHT22;4024;52.172;5.378;2023-02-28T01:31:18;5.80;99.90
7958;DHT22;4024;52.172;5.378;2023-02-28T01:33:44;5.80;99.90
7958;DHT22;4024;52.172;5.378;2023-02-28T01:36:15;5.80;99.90
7958;DHT22;4024;52.172;5.378;2023-02-28T01:38:41;5.80;99.90
7958;DHT22;4024;52.172;5.378;2023-02-28T01:41:08;5.80;99.90
7958;DHT22;4024;52.172;5.378;2023-02-28T01:46:09;5.90;99.90
7958;DHT22;4024;52.172;5.378;2023-02-28T01:48:38;5.80;99.90
7958;DHT22;4024;52.172;5.378;2023-02-28T01:51:10;5.80;99.90
7958;DHT22;4024;52.172;5.378;2023-02-28T01:53:46;5.90;99.90
7958;DHT22;4024;52.172;5.378;2023-02-28T01:56:34;5.90;99.90
7958;DHT22;4024;52.172;5.378;2023-02-28T01:59:02;5.90;99.90
7958;DHT22;4024;52.172;5.378;2023-02-28T02:01:28;5.90;99.90
7958;DHT22;4024;52.172;5.378;2023-02-28T02:03:57;5.90;99.90
7958;DHT22;4024;52.172;5.378;2023-02-28T02:06:55;5.90;99.90
7958;DHT22;4024;52.172;5.378;2023-02-28T02:09:26;5.80;99.90
7958;DHT22;4024;52.172;5.378;2023-02-28T02:12:11;5.90;99.90
7958;DHT22;4024;52.172;5.378;2023-02-28T02:15:16;5.90;99.90
7958;DHT22;4024;52.172;5.378;2023-02-28T02:17:48;5.90;99.90
7958;DHT22;4024;52.172;5.378;2023-02-28T02:20:32;5.90;99.90
7958;DHT22;4024;52.172;5.378;2023-02-28T02:23:19;5.90;99.90
7958;DHT22;4024;52.172;5.378;2023-02-28T02:37:22;5.90;99.90
7958;DHT22;4024;52.172;5.378;2023-02-28T02:40:05;5.90;99.90
7958;DHT22;4024;52.172;5.378;2023-02-28T02:45:38;5.90;99.90
7958;DHT22;4024;52.172;5.378;2023-02-28T02:48:10;5.90;99.90
7958;DHT22;4024;52.172;5.378;2023-02-28T02:50:42;5.90;99.90
7958;DHT22;4024;52.172;5.378;2023-02-28T02:53:10;5.80;99.90
7958;DHT22;4024;52.172;5.378;2023-02-28T02:55:41;5.90;99.90
7958;DHT22;4024;52.172;5.378;2023-02-28T02:58:16;5.80;99.90
7958;DHT22;4024;52.172;5.378;2023-02-28T03:00:47;5.80;99.90
7958;DHT22;4024;52.172;5.378;2023-02-28T03:03:16;5.80;99.90
7958;DHT22;4024;52.172;5.378;2023-02-28T03:05:50;5.90;99.90
7958;DHT22;4024;52.172;5.378;2023-02-28T03:08:16;5.90;99.90
7958;DHT22;4024;52.172;5.378;2023-02-28T03:10:48;5.90;99.90
7958;DHT22;4024;52.172;5.378;2023-02-28T03:16:31;5.90;99.90
7958;DHT22;4024;52.172;5.378;2023-02-28T03:22:37;5.90;99.90
7958;DHT22;4024;52.172;5.378;2023-02-28T03:31:22;6.00;99.90
7958;DHT22;4024;52.172;5.378;2023-02-28T03:34:09;5.90;99.90
7958;DHT22;4024;52.172;5.378;2023-02-28T03:36:38;6.00;99.90
7958;DHT22;4024;52.172;5.378;2023-02-28T03:39:29;5.90;99.90
7958;DHT22;4024;52.172;5.378;2023-02-28T03:42:00;6.00;99.90
7958;DHT22;4024;52.172;5.378;2023-02-28T03:44:45;6.00;99.90
7958;DHT22;4024;52.172;5.378;2023-02-28T03:47:17;6.00;99.90
7958;DHT22;4024;52.172;5.378;2023-02-28T03:49:50;6.00;99.90
7958;DHT22;4024;52.172;5.378;2023-02-28T03:52:20;6.00;99.90
7958;DHT22;4024;52.172;5.378;2023-02-28T03:54:51;6.00;99.90
7958;DHT22;4024;52.172;5.378;2023-02-28T04:00:12;6.00;99.90
7958;DHT22;4024;52.172;5.378;2023-02-28T04:02:39;6.00;99.90
7958;DHT22;4024;52.172;5.378;2023-02-28T04:05:06;6.00;99.90
7958;DHT22;4024;52.172;5.378;2023-02-28T04:07:32;6.00;99.90
7958;DHT22;4024;52.172;5.378;2023-02-28T04:09:58;6.00;99.90
7958;DHT22;4024;52.172;5.378;2023-02-28T04:12:24;6.00;99.90
7958;DHT22;4024;52.172;5.378;2023-02-28T04:14:50;6.00;99.90
7958;DHT22;4024;52.172;5.378;2023-02-28T04:17:16;5.90;99.90
7958;DHT22;4024;52.172;5.378;2023-02-28T04:19:42;5.90;99.90
7958;DHT22;4024;52.172;5.378;2023-02-28T04:22:08;5.90;99.90
7958;DHT22;4024;52.172;5.378;2023-02-28T04:24:34;6.00;99.90
7958;DHT22;4024;52.172;5.378;2023-02-28T04:27:00;5.90;99.90
7958;DHT22;4024;52.172;5.378;2023-02-28T04:29:31;5.90;99.90
7958;DHT22;4024;52.172;5.378;2023-02-28T04:32:00;5.90;99.90
7958;DHT22;4024;52.172;5.378;2023-02-28T04:34:28;5.90;99.90
7958;DHT22;4024;52.172;5.378;2023-02-28T04:36:54;5.90;99.90
7958;DHT22;4024;52.172;5.378;2023-02-28T04:39:21;5.90;99.90
7958;DHT22;4024;52.172;5.378;2023-02-28T04:41:48;5.90;99.90
7958;DHT22;4024;52.172;5.378;2023-02-28T04:44:14;5.80;99.90
7958;DHT22;4024;52.172;5.378;2023-02-28T04:46:40;5.80;99.90
7958;DHT22;4024;52.172;5.378;2023-02-28T04:49:06;5.80;99.90
7958;DHT22;4024;52.172;5.378;2023-02-28T04:51:33;5.70;99.90
7958;DHT22;4024;52.172;5.378;2023-02-28T04:53:58;5.70;99.90
7958;DHT22;4024;52.172;5.378;2023-02-28T04:56:24;5.60;99.90
7958;DHT22;4024;52.172;5.378;2023-02-28T04:58:50;5.60;99.90
7958;DHT22;4024;52.172;5.378;2023-02-28T05:03:51;5.50;99.90
7958;DHT22;4024;52.172;5.378;2023-02-28T05:06:17;5.50;99.90
7958;DHT22;4024;52.172;5.378;2023-02-28T05:08:43;5.50;99.90
7958;DHT22;4024;52.172;5.378;2023-02-28T05:13:43;5.40;99.90
7958;DHT22;4024;52.172;5.378;2023-02-28T05:16:09;5.40;99.90
7958;DHT22;4024;52.172;5.378;2023-02-28T05:18:34;5.30;99.90
7958;DHT22;4024;52.172;5.378;2023-02-28T05:21:00;5.30;99.90
7958;DHT22;4024;52.172;5.378;2023-02-28T05:23:28;5.20;99.90
7958;DHT22;4024;52.172;5.378;2023-02-28T05:25:54;5.20;99.90
7958;DHT22;4024;52.172;5.378;2023-02-28T05:28:20;5.20;99.90
7958;DHT22;4024;52.172;5.378;2023-02-28T05:30:46;5.20;99.90
7958;DHT22;4024;52.172;5.378;2023-02-28T05:33:13;5.20;99.90
7958;DHT22;4024;52.172;5.378;2023-02-28T05:35:40;5.10;99.90
7958;DHT22;4024;52.172;5.378;2023-02-28T05:38:05;5.10;99.90
7958;DHT22;4024;52.172;5.378;2023-02-28T05:40:31;5.10;99.90
7958;DHT22;4024;52.172;5.378;2023-02-28T05:42:57;5.10;99.90
7958;DHT22;4024;52.172;5.378;2023-02-28T05:45:22;5.10;99.90
7958;DHT22;4024;52.172;5.378;2023-02-28T05:47:48;5.00;99.90
7958;DHT22;4024;52.172;5.378;2023-02-28T05:50:13;5.00;99.90
7958;DHT22;4024;52.172;5.378;2023-02-28T05:52:39;5.00;99.90
7958;DHT22;4024;52.172;5.378;2023-02-28T05:55:05;5.00;99.90
7958;DHT22;4024;52.172;5.378;2023-02-28T05:57:31;4.90;99.90
7958;DHT22;4024;52.172;5.378;2023-02-28T05:59:56;4.90;99.90
7958;DHT22;4024;52.172;5.378;2023-02-28T06:02:22;4.90;99.90
7958;DHT22;4024;52.172;5.378;2023-02-28T06:04:47;4.90;99.90
7958;DHT22;4024;52.172;5.378;2023-02-28T06:07:13;4.80;99.90
7958;DHT22;4024;52.172;5.378;2023-02-28T06:09:38;4.80;99.90
7958;DHT22;4024;52.172;5.378;2023-02-28T06:12:05;4.80;99.90
7958;DHT22;4024;52.172;5.378;2023-02-28T06:14:33;4.80;99.90
7958;DHT22;4024;52.172;5.378;2023-02-28T06:17:00;4.80;99.90
7958;DHT22;4024;52.172;5.378;2023-02-28T06:19:26;4.80;99.90
7958;DHT22;4024;52.172;5.378;2023-02-28T06:21:53;4.80;99.90
7958;DHT22;4024;52.172;5.378;2023-02-28T06:24:20;4.80;99.90
7958;DHT22;4024;52.172;5.378;2023-02-28T06:26:45;4.90;99.90
7958;DHT22;4024;52.172;5.378;2023-02-28T06:29:11;4.80;99.90
7958;DHT22;4024;52.172;5.378;2023-02-28T06:31:37;4.80;99.90
7958;DHT22;4024;52.172;5.378;2023-02-28T06:34:04;4.80;99.90
7958;DHT22;4024;52.172;5.378;2023-02-28T06:36:30;4.80;99.90
7958;DHT22;4024;52.172;5.378;2023-02-28T06:38:56;4.80;99.90
7958;DHT22;4024;52.172;5.378;2023-02-28T06:41:25;4.90;99.90
7958;DHT22;4024;52.172;5.378;2023-02-28T06:43:51;4.90;99.90
7958;DHT22;4024;52.172;5.378;2023-02-28T06:46:17;4.90;99.90
7958;DHT22;4024;52.172;5.378;2023-02-28T06:48:44;4.90;99.90
7958;DHT22;4024;52.172;5.378;2023-02-28T06:51:16;4.90;99.90
7958;DHT22;4024;52.172;5.378;2023-02-28T06:53:42;4.90;99.90
7958;DHT22;4024;52.172;5.378;2023-02-28T06:56:11;4.90;99.90
7958;DHT22;4024;52.172;5.378;2023-02-28T06:58:37;4.90;99.90
7958;DHT22;4024;52.172;5.378;2023-02-28T07:01:03;4.90;99.90
7958;DHT22;4024;52.172;5.378;2023-02-28T07:03:29;4.90;99.90
7958;DHT22;4024;52.172;5.378;2023-02-28T07:05:55;4.90;99.90
7958;DHT22;4024;52.172;5.378;2023-02-28T07:08:22;4.90;99.90
7958;DHT22;4024;52.172;5.378;2023-02-28T07:10:52;4.90;99.90
7958;DHT22;4024;52.172;5.378;2023-02-28T07:13:17;5.00;99.90
7958;DHT22;4024;52.172;5.378;2023-02-28T07:15:43;5.00;99.90
7958;DHT22;4024;52.172;5.378;2023-02-28T07:18:08;4.90;99.90
7958;DHT22;4024;52.172;5.378;2023-02-28T07:20:34;5.00;99.90
7958;DHT22;4024;52.172;5.378;2023-02-28T07:23:00;5.00;99.90
7958;DHT22;4024;52.172;5.378;2023-02-28T07:25:27;5.00;99.90
7958;DHT22;4024;52.172;5.378;2023-02-28T07:27:54;5.00;99.90
7958;DHT22;4024;52.172;5.378;2023-02-28T07:30:20;5.00;99.90
7958;DHT22;4024;52.172;5.378;2023-02-28T07:32:46;5.00;99.90
7958;DHT22;4024;52.172;5.378;2023-02-28T07:35:12;5.00;99.90
7958;DHT22;4024;52.172;5.378;2023-02-28T07:37:38;5.00;99.90
7958;DHT22;4024;52.172;5.378;2023-02-28T07:40:06;5.00;99.90
7958;DHT22;4024;52.172;5.378;2023-02-28T07:42:34;5.00;99.90
7958;DHT22;4024;52.172;5.378;2023-02-28T07:44:59;5.10;99.90
7958;DHT22;4024;52.172;5.378;2023-02-28T07:47:25;5.10;99.90
7958;DHT22;4024;52.172;5.378;2023-02-28T07:49:51;5.10;99.90
7958;DHT22;4024;52.172;5.378;2023-02-28T07:52:16;5.20;99.90
7958;DHT22;4024;52.172;5.378;2023-02-28T07:54:42;5.20;99.90
7958;DHT22;4024;52.172;5.378;2023-02-28T07:57:08;5.20;99.90
7958;DHT22;4024;52.172;5.378;2023-02-28T07:59:33;5.20;99.90
7958;DHT22;4024;52.172;5.378;2023-02-28T08:01:59;5.20;99.90
7958;DHT22;4024;52.172;5.378;2023-02-28T08:04:25;5.30;99.90
7958;DHT22;4024;52.172;5.378;2023-02-28T08:06:51;5.30;99.90
7958;DHT22;4024;52.172;5.378;2023-02-28T08:09:21;5.30;99.90
7958;DHT22;4024;52.172;5.378;2023-02-28T08:11:47;5.30;99.90
7958;DHT22;4024;52.172;5.378;2023-02-28T08:14:13;5.40;99.90
7958;DHT22;4024;52.172;5.378;2023-02-28T08:16:39;5.40;99.90
7958;DHT22;4024;52.172;5.378;2023-02-28T08:19:04;5.40;99.90
7958;DHT22;4024;52.172;5.378;2023-02-28T08:21:30;5.50;99.90
7958;DHT22;4024;52.172;5.378;2023-02-28T08:23:55;5.50;99.90
7958;DHT22;4024;52.172;5.378;2023-02-28T08:26:22;5.50;99.90
7958;DHT22;4024;52.172;5.378;2023-02-28T08:28:48;5.50;99.90
7958;DHT22;4024;52.172;5.378;2023-02-28T08:31:16;5.50;99.90
7958;DHT22;4024;52.172;5.378;2023-02-28T08:33:42;5.50;99.90
7958;DHT22;4024;52.172;5.378;2023-02-28T08:36:10;5.60;99.90
7958;DHT22;4024;52.172;5.378;2023-02-28T08:38:36;5.60;99.90
7958;DHT22;4024;52.172;5.378;2023-02-28T08:41:05;5.60;99.90
7958;DHT22;4024;52.172;5.378;2023-02-28T08:43:33;5.60;99.90
7958;DHT22;4024;52.172;5.378;2023-02-28T08:45:59;5.60;99.90
7958;DHT22;4024;52.172;5.378;2023-02-28T08:48:26;5.60;99.90
7958;DHT22;4024;52.172;5.378;2023-02-28T08:51:13;5.60;99.90
7958;DHT22;4024;52.172;5.378;2023-02-28T08:53:40;5.60;99.90
7958;DHT22;4024;52.172;5.378;2023-02-28T08:56:13;5.60;99.90
7958;DHT22;4024;52.172;5.378;2023-02-28T08:58:40;5.60;99.90
7958;DHT22;4024;52.172;5.378;2023-02-28T09:03:40;5.60;99.90
7958;DHT22;4024;52.172;5.378;2023-02-28T09:06:11;5.60;99.90
7958;DHT22;4024;52.172;5.378;2023-02-28T09:08:37;5.60;99.90
7958;DHT22;4024;52.172;5.378;2023-02-28T09:11:03;5.70;99.90
7958;DHT22;4024;52.172;5.378;2023-02-28T09:13:29;5.60;99.90
7958;DHT22;4024;52.172;5.378;2023-02-28T09:15:58;5.70;99.90
7958;DHT22;4024;52.172;5.378;2023-02-28T09:18:24;5.70;99.90
7958;DHT22;4024;52.172;5.378;2023-02-28T09:20:50;5.70;99.90
7958;DHT22;4024;52.172;5.378;2023-02-28T09:23:16;5.70;99.90
7958;DHT22;4024;52.172;5.378;2023-02-28T09:25:49;5.80;99.90
7958;DHT22;4024;52.172;5.378;2023-02-28T09:28:15;5.90;99.90
7958;DHT22;4024;52.172;5.378;2023-02-28T09:30:46;6.00;99.90
7958;DHT22;4024;52.172;5.378;2023-02-28T09:33:13;6.00;99.90
7958;DHT22;4024;52.172;5.378;2023-02-28T09:35:39;6.10;99.90
7958;DHT22;4024;52.172;5.378;2023-02-28T09:38:04;6.20;99.90
7958;DHT22;4024;52.172;5.378;2023-02-28T09:40:31;6.40;99.90
7958;DHT22;4024;52.172;5.378;2023-02-28T09:42:57;6.40;99.90
7958;DHT22;4024;52.172;5.378;2023-02-28T09:45:37;6.40;99.90
7958;DHT22;4024;52.172;5.378;2023-02-28T09:48:17;6.60;99.90
7958;DHT22;4024;52.172;5.378;2023-02-28T09:50:52;6.50;99.90
7958;DHT22;4024;52.172;5.378;2023-02-28T09:53:22;6.50;99.90
7958;DHT22;4024;52.172;5.378;2023-02-28T09:55:55;6.50;99.90
7958;DHT22;4024;52.172;5.378;2023-02-28T09:58:28;6.50;99.90
7958;DHT22;4024;52.172;5.378;2023-02-28T10:06:57;6.60;99.90
7958;DHT22;4024;52.172;5.378;2023-02-28T10:09:26;6.60;99.90
7958;DHT22;4024;52.172;5.378;2023-02-28T10:11:57;6.70;99.90
7958;DHT22;4024;52.172;5.378;2023-02-28T10:14:28;6.70;99.90
7958;DHT22;4024;52.172;5.378;2023-02-28T10:17:23;6.80;99.90
7958;DHT22;4024;52.172;5.378;2023-02-28T10:19:55;6.80;99.90
7958;DHT22;4024;52.172;5.378;2023-02-28T10:22:32;7.00;99.90
7958;DHT22;4024;52.172;5.378;2023-02-28T10:24:59;7.00;99.90
7958;DHT22;4024;52.172;5.378;2023-02-28T10:27:32;7.10;99.90
7958;DHT22;4024;52.172;5.378;2023-02-28T10:30:00;7.20;99.90
7958;DHT22;4024;52.172;5.378;2023-02-28T10:32:30;7.30;99.90
7958;DHT22;4024;52.172;5.378;2023-02-28T10:35:16;7.30;99.90
7958;DHT22;4024;52.172;5.378;2023-02-28T10:37:46;7.40;99.90
7958;DHT22;4024;52.172;5.378;2023-02-28T10:40:25;7.40;99.90
7958;DHT22;4024;52.172;5.378;2023-02-28T10:45:56;7.40;99.90
7958;DHT22;4024;52.172;5.378;2023-02-28T10:48:27;7.30;99.90
7958;DHT22;4024;52.172;5.378;2023-02-28T10:50:55;7.30;99.90
7958;DHT22;4024;52.172;5.378;2023-02-28T10:53:30;7.30;99.90
7958;DHT22;4024;52.172;5.378;2023-02-28T10:56:12;7.30;99.90
7958;DHT22;4024;52.172;5.378;2023-02-28T10:59:00;7.30;99.90
7958;DHT22;4024;52.172;5.378;2023-02-28T11:01:44;7.20;99.90
7958;DHT22;4024;52.172;5.378;2023-02-28T11:06:45;7.20;99.90
7958;DHT22;4024;52.172;5.378;2023-02-28T11:09:23;7.20;99.90
7958;DHT22;4024;52.172;5.378;2023-02-28T11:11:50;7.20;99.90
7958;DHT22;4024;52.172;5.378;2023-02-28T11:14:21;7.20;99.90
7958;DHT22;4024;52.172;5.378;2023-02-28T11:16:48;7.10;99.90
7958;DHT22;4024;52.172;5.378;2023-02-28T11:19:22;7.10;99.60
7958;DHT22;4024;52.172;5.378;2023-02-28T11:21:59;7.10;99.90
7958;DHT22;4024;52.172;5.378;2023-02-28T11:24:35;7.10;99.40
7958;DHT22;4024;52.172;5.378;2023-02-28T11:27:03;7.10;99.90
7958;DHT22;4024;52.172;5.378;2023-02-28T11:29:31;7.10;99.70
7958;DHT22;4024;52.172;5.378;2023-02-28T11:34:36;7.10;99.30
7958;DHT22;4024;52.172;5.378;2023-02-28T11:37:05;7.10;98.80
7958;DHT22;4024;52.172;5.378;2023-02-28T11:39:32;7.10;99.00
7958;DHT22;4024;52.172;5.378;2023-02-28T12:04:49;7.20;98.10
7958;DHT22;4024;52.172;5.378;2023-02-28T12:12:50;7.30;98.20
7958;DHT22;4024;52.172;5.378;2023-02-28T12:15:54;7.30;97.90
7958;DHT22;4024;52.172;5.378;2023-02-28T12:18:35;7.30;97.60
7958;DHT22;4024;52.172;5.378;2023-02-28T12:24:17;7.30;96.70
7958;DHT22;4024;52.172;5.378;2023-02-28T12:26:47;7.40;97.60
7958;DHT22;4024;52.172;5.378;2023-02-28T12:29:30;7.40;97.60
7958;DHT22;4024;52.172;5.378;2023-02-28T12:34:51;7.50;96.80
7958;DHT22;4024;52.172;5.378;2023-02-28T12:37:22;7.50;96.80
7958;DHT22;4024;52.172;5.378;2023-02-28T12:39:56;7.50;96.60
7958;DHT22;4024;52.172;5.378;2023-02-28T12:42:29;7.50;96.00
7958;DHT22;4024;52.172;5.378;2023-02-28T12:45:02;7.60;96.40
7958;DHT22;4024;52.172;5.378;2023-02-28T12:47:30;7.60;96.70
7958;DHT22;4024;52.172;5.378;2023-02-28T12:52:49;7.60;96.30
7958;DHT22;4024;52.172;5.378;2023-02-28T12:55:27;7.60;96.20
7958;DHT22;4024;52.172;5.378;2023-02-28T12:58:37;7.70;95.80
7958;DHT22;4024;52.172;5.378;2023-02-28T13:09:13;7.70;95.50
7958;DHT22;4024;52.172;5.378;2023-02-28T13:11:51;7.80;96.40
7958;DHT22;4024;52.172;5.378;2023-02-28T13:14:29;7.80;95.50
7958;DHT22;4024;52.172;5.378;2023-02-28T13:19:37;7.80;95.10
7958;DHT22;4024;52.172;5.378;2023-02-28T13:22:04;7.90;95.30
7958;DHT22;4024;52.172;5.378;2023-02-28T13:24:40;7.90;95.20
7958;DHT22;4024;52.172;5.378;2023-02-28T13:29:36;7.90;93.40
7958;DHT22;4024;52.172;5.378;2023-02-28T13:34:30;8.00;93.40
7958;DHT22;4024;52.172;5.378;2023-02-28T13:42:48;8.00;94.60
7958;DHT22;4024;52.172;5.378;2023-02-28T13:45:29;8.00;93.40
7958;DHT22;4024;52.172;5.378;2023-02-28T13:47:59;8.00;93.40
7958;DHT22;4024;52.172;5.378;2023-02-28T14:04:37;8.10;92.50
7958;DHT22;4024;52.172;5.378;2023-02-28T14:07:07;8.10;92.90
7958;DHT22;4024;52.172;5.378;2023-02-28T14:09:41;8.20;93.50
7958;DHT22;4024;52.172;5.378;2023-02-28T14:18:00;8.20;92.40
7958;DHT22;4024;52.172;5.378;2023-02-28T14:20:29;8.20;92.00
7958;DHT22;4024;52.172;5.378;2023-02-28T14:23:31;8.20;91.80
7958;DHT22;4024;52.172;5.378;2023-02-28T14:26:29;8.20;91.50
7958;DHT22;4024;52.172;5.378;2023-02-28T14:32:02;8.30;92.30
7958;DHT22;4024;52.172;5.378;2023-02-28T14:37:05;8.30;91.10
7958;DHT22;4024;52.172;5.378;2023-02-28T14:39:33;8.40;91.30
7958;DHT22;4024;52.172;5.378;2023-02-28T14:42:00;8.40;91.00
7958;DHT22;4024;52.172;5.378;2023-02-28T14:44:30;8.40;90.80
7958;DHT22;4024;52.172;5.378;2023-02-28T14:46:59;8.40;91.10
7958;DHT22;4024;52.172;5.378;2023-02-28T14:49:36;8.40;90.40
7958;DHT22;4024;52.172;5.378;2023-02-28T14:54:38;8.40;90.00
7958;DHT22;4024;52.172;5.378;2023-02-28T14:57:03;8.50;90.00
7958;DHT22;4024;52.172;5.378;2023-02-28T14:59:35;8.50;90.80
7958;DHT22;4024;52.172;5.378;2023-02-28T15:02:23;8.50;90.30
7958;DHT22;4024;52.172;5.378;2023-02-28T15:04:57;8.40;90.60
7958;DHT22;4024;52.172;5.378;2023-02-28T15:07:24;8.50;90.40
7958;DHT22;4024;52.172;5.378;2023-02-28T15:12:32;8.50;89.10
7958;DHT22;4024;52.172;5.378;2023-02-28T15:14:58;8.50;90.00
7958;DHT22;4024;52.172;5.378;2023-02-28T15:17:24;8.50;89.70
7958;DHT22;4024;52.172;5.378;2023-02-28T15:19:52;8.50;90.20
7958;DHT22;4024;52.172;5.378;2023-02-28T15:22:23;8.50;89.10
7958;DHT22;4024;52.172;5.378;2023-02-28T15:24:54;8.50;89.30
7958;DHT22;4024;52.172;5.378;2023-02-28T15:27:29;8.50;94.20
7958;DHT22;4024;52.172;5.378;2023-02-28T15:30:00;8.50;91.50
7958;DHT22;4024;52.172;5.378;2023-02-28T15:34:55;8.50;90.60
7958;DHT22;4024;52.172;5.378;2023-02-28T15:37:46;8.60;90.10
7958;DHT22;4024;52.172;5.378;2023-02-28T15:40:14;8.50;89.60
7958;DHT22;4024;52.172;5.378;2023-02-28T15:42:41;8.60;91.00
7958;DHT22;4024;52.172;5.378;2023-02-28T15:45:32;8.50;90.70
7958;DHT22;4024;52.172;5.378;2023-02-28T15:48:02;8.50;90.80
7958;DHT22;4024;52.172;5.378;2023-02-28T15:50:28;8.50;90.30
7958;DHT22;4024;52.172;5.378;2023-02-28T15:52:54;8.50;90.30
7958;DHT22;4024;52.172;5.378;2023-02-28T15:55:27;8.50;90.10
7958;DHT22;4024;52.172;5.378;2023-02-28T15:57:55;8.50;89.30
7958;DHT22;4024;52.172;5.378;2023-02-28T16:00:25;8.50;90.00
7958;DHT22;4024;52.172;5.378;2023-02-28T16:02:51;8.50;90.10
7958;DHT22;4024;52.172;5.378;2023-02-28T16:05:30;8.40;90.50
7958;DHT22;4024;52.172;5.378;2023-02-28T16:08:15;8.40;90.00
7958;DHT22;4024;52.172;5.378;2023-02-28T16:10:41;8.40;90.60
7958;DHT22;4024;52.172;5.378;2023-02-28T16:13:09;8.40;90.50
7958;DHT22;4024;52.172;5.378;2023-02-28T16:15:38;8.40;90.20
7958;DHT22;4024;52.172;5.378;2023-02-28T16:18:12;8.40;89.60
7958;DHT22;4024;52.172;5.378;2023-02-28T16:20:38;8.30;89.60
7958;DHT22;4024;52.172;5.378;2023-02-28T16:23:04;8.30;90.00
7958;DHT22;4024;52.172;5.378;2023-02-28T16:25:39;8.30;89.70
7958;DHT22;4024;52.172;5.378;2023-02-28T16:28:15;8.30;89.80
7958;DHT22;4024;52.172;5.378;2023-02-28T16:30:43;8.30;89.20
7958;DHT22;4024;52.172;5.378;2023-02-28T16:33:09;8.30;90.00
7958;DHT22;4024;52.172;5.378;2023-02-28T16:35:34;8.20;90.00
7958;DHT22;4024;52.172;5.378;2023-02-28T16:38:00;8.20;90.00
7958;DHT22;4024;52.172;5.378;2023-02-28T16:40:26;8.20;90.20
7958;DHT22;4024;52.172;5.378;2023-02-28T16:42:58;8.20;90.30
7958;DHT22;4024;52.172;5.378;2023-02-28T16:45:26;8.20;90.50
7958;DHT22;4024;52.172;5.378;2023-02-28T16:47:53;8.10;90.40
7958;DHT22;4024;52.172;5.378;2023-02-28T16:50:20;8.10;90.90
7958;DHT22;4024;52.172;5.378;2023-02-28T16:52:46;8.10;91.00
7958;DHT22;4024;52.172;5.378;2023-02-28T16:55:12;8.00;91.60
7958;DHT22;4024;52.172;5.378;2023-02-28T16:57:38;8.00;91.60
7958;DHT22;4024;52.172;5.378;2023-02-28T17:00:06;8.00;91.70
7958;DHT22;4024;52.172;5.378;2023-02-28T17:02:33;7.90;91.70
7958;DHT22;4024;52.172;5.378;2023-02-28T17:04:59;7.90;92.00
7958;DHT22;4024;52.172;5.378;2023-02-28T17:07:24;7.90;91.90
7958;DHT22;4024;52.172;5.378;2023-02-28T17:09:51;7.80;92.10
7958;DHT22;4024;52.172;5.378;2023-02-28T17:12:17;7.80;92.30
7958;DHT22;4024;52.172;5.378;2023-02-28T17:14:42;7.70;92.70
7958;DHT22;4024;52.172;5.378;2023-02-28T17:17:15;7.70;92.90
7958;DHT22;4024;52.172;5.378;2023-02-28T17:19:42;7.70;93.20
7958;DHT22;4024;52.172;5.378;2023-02-28T17:22:09;7.60;93.60
7958;DHT22;4024;52.172;5.378;2023-02-28T17:24:35;7.60;93.30
7958;DHT22;4024;52.172;5.378;2023-02-28T17:27:01;7.60;93.90
7958;DHT22;4024;52.172;5.378;2023-02-28T17:29:27;7.40;94.00
7958;DHT22;4024;52.172;5.378;2023-02-28T17:31:53;7.50;94.30
7958;DHT22;4024;52.172;5.378;2023-02-28T17:34:19;7.40;94.50
7958;DHT22;4024;52.172;5.378;2023-02-28T17:36:46;7.40;94.60
7958;DHT22;4024;52.172;5.378;2023-02-28T17:39:13;7.40;94.80
7958;DHT22;4024;52.172;5.378;2023-02-28T17:41:55;7.30;95.00
7958;DHT22;4024;52.172;5.378;2023-02-28T17:44:22;7.30;95.60
7958;DHT22;4024;52.172;5.378;2023-02-28T17:46:48;7.20;95.70
7958;DHT22;4024;52.172;5.378;2023-02-28T17:49:14;7.10;96.00
7958;DHT22;4024;52.172;5.378;2023-02-28T17:51:40;7.10;96.40
7958;DHT22;4024;52.172;5.378;2023-02-28T17:54:06;7.10;96.60
7958;DHT22;4024;52.172;5.378;2023-02-28T17:56:32;7.00;97.00
7958;DHT22;4024;52.172;5.378;2023-02-28T17:58:57;7.00;97.40
7958;DHT22;4024;52.172;5.378;2023-02-28T18:01:24;6.90;97.90
7958;DHT22;4024;52.172;5.378;2023-02-28T18:03:54;6.90;98.10
7958;DHT22;4024;52.172;5.378;2023-02-28T18:06:23;6.90;98.20
7958;DHT22;4024;52.172;5.378;2023-02-28T18:08:50;6.90;98.50
7958;DHT22;4024;52.172;5.378;2023-02-28T18:11:17;6.80;98.60
7958;DHT22;4024;52.172;5.378;2023-02-28T18:13:51;6.80;98.90
7958;DHT22;4024;52.172;5.378;2023-02-28T18:16:18;6.80;99.00
7958;DHT22;4024;52.172;5.378;2023-02-28T18:18:44;6.80;99.20
7958;DHT22;4024;52.172;5.378;2023-02-28T18:21:13;6.80;99.30
7958;DHT22;4024;52.172;5.378;2023-02-28T18:23:43;6.70;99.50
7958;DHT22;4024;52.172;5.378;2023-02-28T18:26:16;6.70;99.60
7958;DHT22;4024;52.172;5.378;2023-02-28T18:28:43;6.70;99.90
7958;DHT22;4024;52.172;5.378;2023-02-28T18:31:12;6.70;99.90
7958;DHT22;4024;52.172;5.378;2023-02-28T18:33:40;6.70;99.90
7958;DHT22;4024;52.172;5.378;2023-02-28T18:36:06;6.60;99.90
7958;DHT22;4024;52.172;5.378;2023-02-28T18:38:32;6.50;99.90
7958;DHT22;4024;52.172;5.378;2023-02-28T18:41:00;6.50;99.90
7958;DHT22;4024;52.172;5.378;2023-02-28T18:43:27;6.50;99.90
7958;DHT22;4024;52.172;5.378;2023-02-28T18:45:53;6.50;99.90
7958;DHT22;4024;52.172;5.378;2023-02-28T18:48:21;6.40;99.90
7958;DHT22;4024;52.172;5.378;2023-02-28T18:50:48;6.30;99.90
7958;DHT22;4024;52.172;5.378;2023-02-28T18:53:14;6.40;99.90
7958;DHT22;4024;52.172;5.378;2023-02-28T18:55:40;6.30;99.90
7958;DHT22;4024;52.172;5.378;2023-02-28T18:58:06;6.30;99.90